createdAt,value
2018-07-01T00:00:36.206Z,35.5
2018-07-01T00:01:37.629Z,35.3
2018-07-01T00:02:39.020Z,35.4
2018-07-01T00:03:40.464Z,35.5
2018-07-01T00:04:41.807Z,35.4
2018-07-01T00:05:43.202Z,35.3
2018-07-01T00:06:44.615Z,35.3
2018-07-01T00:07:46.012Z,35.6
2018-07-01T00:08:47.406Z,36.0
2018-07-01T00:09:48.798Z,36.0
2018-07-01T00:10:50.234Z,36.1
2018-07-01T00:11:51.591Z,36.3
2018-07-01T00:12:52.990Z,36.4
2018-07-01T00:13:54.389Z,36.3
2018-07-01T00:14:55.782Z,36.1
2018-07-01T00:15:57.179Z,36.3
2018-07-01T00:16:58.579Z,36.4
2018-07-01T00:17:59.966Z,36.3
2018-07-01T00:19:01.360Z,36.6
2018-07-01T00:20:02.763Z,37.3
2018-07-01T00:21:04.165Z,36.8
2018-07-01T00:22:05.548Z,37.0
2018-07-01T00:23:06.942Z,37.0
2018-07-01T00:24:08.330Z,36.8
2018-07-01T00:25:09.729Z,36.8
2018-07-01T00:26:11.121Z,37.1
2018-07-01T00:27:12.516Z,37.1
2018-07-01T00:28:13.913Z,37.3
2018-07-01T00:29:15.308Z,37.6
2018-07-01T00:30:16.697Z,37.2
2018-07-01T00:31:18.091Z,37.9
2018-07-01T00:32:19.498Z,37.8
2018-07-01T00:33:20.897Z,37.9
2018-07-01T00:34:22.289Z,37.8
2018-07-01T00:35:23.685Z,37.4
2018-07-01T00:36:25.086Z,37.5
2018-07-01T00:37:26.479Z,37.6
2018-07-01T00:38:27.875Z,37.4
2018-07-01T00:39:29.276Z,37.4
2018-07-01T00:40:30.671Z,37.4
2018-07-01T00:41:32.068Z,37.3
2018-07-01T00:42:33.457Z,36.7
2018-07-01T00:43:34.853Z,36.9
2018-07-01T00:44:36.246Z,36.9
2018-07-01T00:45:37.641Z,37.4
2018-07-01T00:46:39.035Z,37.4
2018-07-01T00:47:40.427Z,37.5
2018-07-01T00:48:41.824Z,37.5
2018-07-01T00:49:43.215Z,37.4
2018-07-01T00:50:44.611Z,37.4
2018-07-01T00:51:46.005Z,37.8
2018-07-01T00:52:47.395Z,37.5
2018-07-01T00:53:48.791Z,37.6
2018-07-01T00:54:50.184Z,37.5
2018-07-01T00:55:51.590Z,37.7
2018-07-01T00:56:52.986Z,37.6
2018-07-01T00:57:54.383Z,37.7
2018-07-01T00:58:55.778Z,37.4
2018-07-01T00:59:57.170Z,37.4
2018-07-01T01:00:58.561Z,37.8
2018-07-01T01:01:59.956Z,37.3
2018-07-01T01:03:01.350Z,37.5
2018-07-01T01:04:02.747Z,38.0
2018-07-01T01:05:04.157Z,37.6
2018-07-01T01:06:05.553Z,37.8
2018-07-01T01:07:06.943Z,37.5
2018-07-01T01:08:08.336Z,38.1
2018-07-01T01:09:09.734Z,37.8
2018-07-01T01:10:11.128Z,38.1
2018-07-01T01:11:12.522Z,37.8
2018-07-01T01:12:13.920Z,38.1
2018-07-01T01:13:15.315Z,37.6
2018-07-01T01:14:16.708Z,37.9
2018-07-01T01:15:18.102Z,37.9
2018-07-01T01:16:19.495Z,37.7
2018-07-01T01:17:20.899Z,38.1
2018-07-01T01:18:22.342Z,37.9
2018-07-01T01:19:23.736Z,38.0
2018-07-01T01:20:25.128Z,38.4
2018-07-01T01:21:26.521Z,38.5
2018-07-01T01:22:27.914Z,38.6
2018-07-01T01:23:29.309Z,38.5
2018-07-01T01:24:30.705Z,38.9
2018-07-01T01:25:32.100Z,38.9
2018-07-01T01:26:33.494Z,38.8
2018-07-01T01:27:34.888Z,38.8
2018-07-01T01:28:36.281Z,38.7
2018-07-01T01:29:37.674Z,38.8
2018-07-01T01:30:39.080Z,39.0
2018-07-01T01:31:40.475Z,38.8
2018-07-01T01:32:41.869Z,38.5
2018-07-01T01:33:43.264Z,38.8
2018-07-01T01:34:44.656Z,39.1
2018-07-01T01:35:46.050Z,39.8
2018-07-01T01:36:47.446Z,39.2
2018-07-01T01:37:48.839Z,39.4
2018-07-01T01:38:50.243Z,39.3
2018-07-01T01:39:51.632Z,39.6
2018-07-01T01:40:53.028Z,39.7
2018-07-01T01:41:54.423Z,39.3
2018-07-01T01:42:55.815Z,40.0
2018-07-01T01:43:57.213Z,40.3
2018-07-01T01:44:58.610Z,40.0
2018-07-01T01:46:00.006Z,40.0
2018-07-01T01:47:01.403Z,40.3
2018-07-01T01:48:02.798Z,40.4
2018-07-01T01:49:04.185Z,40.3
2018-07-01T01:50:05.577Z,40.3
2018-07-01T01:51:06.970Z,40.6
2018-07-01T01:52:08.362Z,40.7
2018-07-01T01:53:09.755Z,40.5
2018-07-01T01:54:11.154Z,40.4
2018-07-01T01:55:12.548Z,40.7
2018-07-01T01:56:13.951Z,40.4
2018-07-01T01:57:15.343Z,40.3
2018-07-01T01:58:16.742Z,40.7
2018-07-01T01:59:18.136Z,40.7
2018-07-01T02:00:19.527Z,40.8
2018-07-01T02:01:20.918Z,40.8
2018-07-01T02:02:22.315Z,40.6
2018-07-01T02:03:23.804Z,40.6
2018-07-01T02:04:25.220Z,40.9
2018-07-01T02:05:26.612Z,41.0
2018-07-01T02:06:28.058Z,40.9
2018-07-01T02:07:29.396Z,40.9
2018-07-01T02:08:30.800Z,41.0
2018-07-01T02:09:32.200Z,41.0
2018-07-01T02:10:33.590Z,41.3
2018-07-01T02:11:34.983Z,41.2
2018-07-01T02:12:36.377Z,41.2
2018-07-01T02:13:37.775Z,41.5
2018-07-01T02:14:39.195Z,41.0
2018-07-01T02:15:40.550Z,41.2
2018-07-01T02:16:41.950Z,41.1
2018-07-01T02:17:43.353Z,41.0
2018-07-01T02:18:44.746Z,41.2
2018-07-01T02:19:46.140Z,41.2
2018-07-01T02:20:47.537Z,41.3
2018-07-01T02:21:48.940Z,40.9
2018-07-01T02:22:50.335Z,40.9
2018-07-01T02:23:51.725Z,41.1
2018-07-01T02:24:53.116Z,41.3
2018-07-01T02:25:54.511Z,41.2
2018-07-01T02:26:55.903Z,41.4
2018-07-01T02:27:57.296Z,41.2
2018-07-01T02:28:58.689Z,41.0
2018-07-01T02:30:00.086Z,41.3
2018-07-01T02:31:01.475Z,41.5
2018-07-01T02:32:02.865Z,41.1
2018-07-01T02:33:04.259Z,41.5
2018-07-01T02:34:05.654Z,41.3
2018-07-01T02:35:07.048Z,41.2
2018-07-01T02:36:08.446Z,41.3
2018-07-01T02:37:09.838Z,41.3
2018-07-01T02:38:11.247Z,41.2
2018-07-01T02:39:12.644Z,41.7
2018-07-01T02:40:14.031Z,41.6
2018-07-01T02:41:15.432Z,41.4
2018-07-01T02:42:16.825Z,41.7
2018-07-01T02:43:18.221Z,41.7
2018-07-01T02:44:19.611Z,41.9
2018-07-01T02:45:21.006Z,41.8
2018-07-01T02:46:22.398Z,41.7
2018-07-01T02:47:23.790Z,41.7
2018-07-01T02:48:25.182Z,42.1
2018-07-01T02:49:26.600Z,42.3
2018-07-01T02:50:28.027Z,42.2
2018-07-01T02:51:29.418Z,42.3
2018-07-01T02:52:30.814Z,42.3
2018-07-01T02:53:32.209Z,42.8
2018-07-01T02:54:33.602Z,42.6
2018-07-01T02:55:34.998Z,42.8
2018-07-01T02:56:36.392Z,42.6
2018-07-01T02:57:37.787Z,42.5
2018-07-01T02:58:39.182Z,42.6
2018-07-01T02:59:40.576Z,42.9
2018-07-01T03:00:41.972Z,43.0
2018-07-01T03:01:43.362Z,42.9
2018-07-01T03:02:44.744Z,42.9
2018-07-01T03:03:46.147Z,42.9
2018-07-01T03:04:47.539Z,42.9
2018-07-01T03:05:48.951Z,42.9
2018-07-01T03:06:50.341Z,43.1
2018-07-01T03:07:51.736Z,43.1
2018-07-01T03:08:53.133Z,43.4
2018-07-01T03:09:54.530Z,43.3
2018-07-01T03:10:55.921Z,43.5
2018-07-01T03:11:57.313Z,43.3
2018-07-01T03:12:58.716Z,43.0
2018-07-01T03:14:00.111Z,43.4
2018-07-01T03:15:01.509Z,43.0
2018-07-01T03:16:02.905Z,42.8
2018-07-01T03:17:04.291Z,43.5
2018-07-01T03:18:05.686Z,43.7
2018-07-01T03:19:07.079Z,43.4
2018-07-01T03:20:08.477Z,43.2
2018-07-01T03:21:09.881Z,43.2
2018-07-01T03:22:11.277Z,43.2
2018-07-01T03:23:12.677Z,43.1
2018-07-01T03:24:14.063Z,43.0
2018-07-01T03:25:15.458Z,43.0
2018-07-01T03:26:16.902Z,43.5
2018-07-01T03:27:18.249Z,43.4
2018-07-01T03:28:19.642Z,43.4
2018-07-01T03:29:21.049Z,43.2
2018-07-01T03:30:22.450Z,43.4
2018-07-01T03:31:23.832Z,43.2
2018-07-01T03:32:25.238Z,43.8
2018-07-01T03:33:26.639Z,43.7
2018-07-01T03:34:28.034Z,43.9
2018-07-01T03:35:29.526Z,43.5
2018-07-01T03:36:30.929Z,43.3
2018-07-01T03:37:32.322Z,42.8
2018-07-01T03:38:33.721Z,42.9
2018-07-01T03:39:35.112Z,43.5
2018-07-01T03:40:36.509Z,43.4
2018-07-01T03:41:37.921Z,43.5
2018-07-01T03:42:39.313Z,43.9
2018-07-01T03:43:40.708Z,43.8
2018-07-01T03:44:42.098Z,43.7
2018-07-01T03:45:43.492Z,44.1
2018-07-01T03:46:44.887Z,43.9
2018-07-01T03:47:46.285Z,44.0
2018-07-01T03:48:47.684Z,44.2
2018-07-01T03:49:49.077Z,44.5
2018-07-01T03:50:50.472Z,44.0
2018-07-01T03:51:51.864Z,44.0
2018-07-01T03:52:53.259Z,44.3
2018-07-01T03:53:54.664Z,44.9
2018-07-01T03:54:56.063Z,44.6
2018-07-01T03:55:57.462Z,44.5
2018-07-01T03:56:58.856Z,44.7
2018-07-01T03:58:00.253Z,45.1
2018-07-01T03:59:01.647Z,44.9
2018-07-01T04:00:03.046Z,45.3
2018-07-01T04:01:04.441Z,45.0
2018-07-01T04:02:05.946Z,45.3
2018-07-01T04:03:07.344Z,45.6
2018-07-01T04:04:08.743Z,45.1
2018-07-01T04:05:10.145Z,45.6
2018-07-01T04:06:11.535Z,45.6
2018-07-01T04:07:12.939Z,45.8
2018-07-01T04:08:14.334Z,45.9
2018-07-01T04:09:15.732Z,46.5
2018-07-01T04:10:17.146Z,46.4
2018-07-01T04:11:18.549Z,46.3
2018-07-01T04:12:19.951Z,45.9
2018-07-01T04:13:21.341Z,45.8
2018-07-01T04:14:22.739Z,45.5
2018-07-01T04:15:24.137Z,46.0
2018-07-01T04:16:25.533Z,46.0
2018-07-01T04:17:26.945Z,45.7
2018-07-01T04:18:28.338Z,45.7
2018-07-01T04:19:29.735Z,45.6
2018-07-01T04:20:31.130Z,46.0
2018-07-01T04:21:32.629Z,46.0
2018-07-01T04:22:34.032Z,45.8
2018-07-01T04:23:35.428Z,46.2
2018-07-01T04:24:36.827Z,46.5
2018-07-01T04:25:38.228Z,46.4
2018-07-01T04:26:39.619Z,46.9
2018-07-01T04:27:41.018Z,46.5
2018-07-01T04:28:42.435Z,45.9
2018-07-01T04:29:43.814Z,46.2
2018-07-01T04:30:45.209Z,46.3
2018-07-01T04:31:46.612Z,46.2
2018-07-01T04:32:48.008Z,46.1
2018-07-01T04:33:49.409Z,46.1
2018-07-01T04:34:50.805Z,45.9
2018-07-01T04:35:52.208Z,46.0
2018-07-01T04:36:53.602Z,46.0
2018-07-01T04:37:54.997Z,46.0
2018-07-01T04:38:56.403Z,45.9
2018-07-01T04:39:57.836Z,46.6
2018-07-01T04:40:59.325Z,46.1
2018-07-01T04:42:00.826Z,46.0
2018-07-01T04:43:02.270Z,46.5
2018-07-01T04:44:03.666Z,46.3
2018-07-01T04:45:05.063Z,46.3
2018-07-01T04:46:06.459Z,46.2
2018-07-01T04:47:07.864Z,45.8
2018-07-01T04:48:09.254Z,46.2
2018-07-01T04:49:10.672Z,46.2
2018-07-01T04:50:12.045Z,46.5
2018-07-01T04:51:13.443Z,46.3
2018-07-01T04:52:14.839Z,46.8
2018-07-01T04:53:16.234Z,46.6
2018-07-01T04:54:17.631Z,46.4
2018-07-01T04:55:19.067Z,46.3
2018-07-01T04:56:20.424Z,46.2
2018-07-01T04:57:21.820Z,46.5
2018-07-01T04:58:23.217Z,46.3
2018-07-01T04:59:24.615Z,46.2
2018-07-01T05:00:26.012Z,46.9
2018-07-01T05:01:27.405Z,46.3
2018-07-01T05:02:28.823Z,46.7
2018-07-01T05:03:30.200Z,46.7
2018-07-01T05:04:31.616Z,46.7
2018-07-01T05:05:33.013Z,47.2
2018-07-01T05:06:34.408Z,47.2
2018-07-01T05:07:35.865Z,46.8
2018-07-01T05:08:37.295Z,46.7
2018-07-01T05:09:38.692Z,47.3
2018-07-01T05:10:40.084Z,47.0
2018-07-01T05:11:41.481Z,46.8
2018-07-01T05:12:42.881Z,47.0
2018-07-01T05:13:44.281Z,47.0
2018-07-01T05:14:45.683Z,47.2
2018-07-01T05:15:47.090Z,47.2
2018-07-01T05:16:48.532Z,47.6
2018-07-01T05:17:49.937Z,47.4
2018-07-01T05:18:51.329Z,47.3
2018-07-01T05:19:52.726Z,47.0
2018-07-01T05:20:54.130Z,47.5
2018-07-01T05:21:55.526Z,47.2
2018-07-01T05:22:56.926Z,48.2
2018-07-01T05:23:58.328Z,47.6
2018-07-01T05:24:59.730Z,47.8
2018-07-01T05:26:01.125Z,47.9
2018-07-01T05:27:02.522Z,47.6
2018-07-01T05:28:03.920Z,47.2
2018-07-01T05:29:05.315Z,47.3
2018-07-01T05:30:06.716Z,48.0
2018-07-01T05:31:08.111Z,47.6
2018-07-01T05:32:09.509Z,47.4
2018-07-01T05:33:10.906Z,47.6
2018-07-01T05:34:12.304Z,47.8
2018-07-01T05:35:13.703Z,47.7
2018-07-01T05:36:15.115Z,47.8
2018-07-01T05:37:16.514Z,48.3
2018-07-01T05:38:17.914Z,47.9
2018-07-01T05:39:19.306Z,47.7
2018-07-01T05:40:20.699Z,47.6
2018-07-01T05:41:22.094Z,47.9
2018-07-01T05:42:23.502Z,47.9
2018-07-01T05:43:24.910Z,48.2
2018-07-01T05:44:26.297Z,48.2
2018-07-01T05:45:27.692Z,48.4
2018-07-01T05:46:29.089Z,47.6
2018-07-01T05:47:30.490Z,47.9
2018-07-01T05:48:31.889Z,48.5
2018-07-01T05:49:33.287Z,48.2
2018-07-01T05:50:34.676Z,48.4
2018-07-01T05:51:36.082Z,48.3
2018-07-01T05:52:37.479Z,48.5
2018-07-01T05:53:38.902Z,48.4
2018-07-01T05:54:40.298Z,48.1
2018-07-01T05:55:41.698Z,47.8
2018-07-01T05:56:43.094Z,47.1
2018-07-01T05:57:44.505Z,47.8
2018-07-01T05:58:45.893Z,47.9
2018-07-01T05:59:47.287Z,47.7
2018-07-01T06:00:48.681Z,47.1
2018-07-01T06:01:50.078Z,47.3
2018-07-01T06:02:51.475Z,47.4
2018-07-01T06:03:52.870Z,47.1
2018-07-01T06:04:54.266Z,47.2
2018-07-01T06:05:55.667Z,47.3
2018-07-01T06:06:57.065Z,47.2
2018-07-01T06:07:58.462Z,47.4
2018-07-01T06:08:59.863Z,46.8
2018-07-01T06:10:01.257Z,47.1
2018-07-01T06:11:02.666Z,46.8
2018-07-01T06:12:04.060Z,47.3
2018-07-01T06:13:05.460Z,47.5
2018-07-01T06:14:06.880Z,47.8
2018-07-01T06:15:08.258Z,47.5
2018-07-01T06:16:09.646Z,47.5
2018-07-01T06:17:11.043Z,47.7
2018-07-01T06:18:12.438Z,47.6
2018-07-01T06:19:13.838Z,47.1
2018-07-01T06:20:15.241Z,47.6
2018-07-01T06:21:16.638Z,47.6
2018-07-01T06:22:18.032Z,47.5
2018-07-01T06:23:19.432Z,47.7
2018-07-01T06:24:20.839Z,47.1
2018-07-01T06:25:22.240Z,46.5
2018-07-01T06:26:23.633Z,46.4
2018-07-01T06:27:25.033Z,46.6
2018-07-01T06:28:26.429Z,45.8
2018-07-01T06:29:27.822Z,45.8
2018-07-01T06:30:29.193Z,45.7
2018-07-01T06:31:30.595Z,45.9
2018-07-01T06:32:31.999Z,45.3
2018-07-01T06:33:33.397Z,44.6
2018-07-01T06:34:34.796Z,43.9
2018-07-01T06:35:36.195Z,43.8
2018-07-01T06:36:37.591Z,43.7
2018-07-01T06:37:38.992Z,43.1
2018-07-01T06:38:40.385Z,42.7
2018-07-01T06:39:41.860Z,43.1
2018-07-01T06:40:43.263Z,43.3
2018-07-01T06:41:44.664Z,42.9
2018-07-01T06:42:46.080Z,42.4
2018-07-01T06:43:47.476Z,42.6
2018-07-01T06:44:48.880Z,42.6
2018-07-01T06:45:50.282Z,42.3
2018-07-01T06:46:51.679Z,41.6
2018-07-01T06:47:53.077Z,41.9
2018-07-01T06:48:54.476Z,41.6
2018-07-01T06:49:55.870Z,41.8
2018-07-01T06:50:57.269Z,41.5
2018-07-01T06:51:58.665Z,41.8
2018-07-01T06:53:00.086Z,41.5
2018-07-01T06:54:01.489Z,41.3
2018-07-01T06:55:02.883Z,41.0
2018-07-01T06:56:04.287Z,41.1
2018-07-01T06:57:05.685Z,41.0
2018-07-01T06:58:07.079Z,41.0
2018-07-01T06:59:08.482Z,40.9
2018-07-01T07:00:09.877Z,40.8
2018-07-01T07:01:11.275Z,40.4
2018-07-01T07:02:12.674Z,40.5
2018-07-01T07:03:14.073Z,40.1
2018-07-01T07:04:15.468Z,40.0
2018-07-01T07:05:16.864Z,39.9
2018-07-01T07:06:18.261Z,40.2
2018-07-01T07:07:19.661Z,40.1
2018-07-01T07:08:21.063Z,39.9
2018-07-01T07:09:22.460Z,40.2
2018-07-01T07:10:23.860Z,40.0
2018-07-01T07:11:25.267Z,39.4
2018-07-01T07:12:26.667Z,38.9
2018-07-01T07:13:28.134Z,39.2
2018-07-01T07:14:29.545Z,39.5
2018-07-01T07:15:30.959Z,39.4
2018-07-01T07:16:32.362Z,39.1
2018-07-01T07:17:33.764Z,39.3
2018-07-01T07:18:35.163Z,39.5
2018-07-01T07:19:36.561Z,39.1
2018-07-01T07:20:37.957Z,38.4
2018-07-01T07:21:39.359Z,38.8
2018-07-01T07:22:40.779Z,38.7
2018-07-01T07:23:42.181Z,38.6
2018-07-01T07:24:43.589Z,38.5
2018-07-01T07:25:45.013Z,38.6
2018-07-01T07:26:46.450Z,38.8
2018-07-01T07:27:47.850Z,38.9
2018-07-01T07:28:49.250Z,38.3
2018-07-01T07:29:50.646Z,39.2
2018-07-01T07:30:52.044Z,39.0
2018-07-01T07:31:53.484Z,38.4
2018-07-01T07:32:54.853Z,38.2
2018-07-01T07:33:56.250Z,37.6
2018-07-01T07:34:57.657Z,37.9
2018-07-01T07:35:59.062Z,38.0
2018-07-01T07:37:00.463Z,37.4
2018-07-01T07:38:01.865Z,37.7
2018-07-01T07:39:03.301Z,37.9
2018-07-01T07:40:04.706Z,38.0
2018-07-01T07:41:06.106Z,38.2
2018-07-01T07:42:07.506Z,37.9
2018-07-01T07:43:08.903Z,37.7
2018-07-01T07:44:10.301Z,37.8
2018-07-01T07:45:11.768Z,37.3
2018-07-01T07:46:13.114Z,37.4
2018-07-01T07:47:14.512Z,37.8
2018-07-01T07:48:15.917Z,37.8
2018-07-01T07:49:17.325Z,37.0
2018-07-01T07:50:18.726Z,37.7
2018-07-01T07:51:20.127Z,36.9
2018-07-01T07:52:21.543Z,36.8
2018-07-01T07:53:22.936Z,37.1
2018-07-01T07:54:24.339Z,37.1
2018-07-01T07:55:25.739Z,37.2
2018-07-01T07:56:27.147Z,36.4
2018-07-01T07:57:28.549Z,37.1
2018-07-01T07:58:29.959Z,36.7
2018-07-01T07:59:31.356Z,36.5
2018-07-01T08:00:32.758Z,36.4
2018-07-01T08:01:34.152Z,36.3
2018-07-01T08:02:35.556Z,36.0
2018-07-01T08:03:36.951Z,35.8
2018-07-01T08:04:38.358Z,36.0
2018-07-01T08:05:39.759Z,35.4
2018-07-01T08:06:41.163Z,35.4
2018-07-01T08:07:42.610Z,35.4
2018-07-01T08:08:43.968Z,36.3
2018-07-01T08:09:45.362Z,36.1
2018-07-01T08:10:46.855Z,35.5
2018-07-01T08:11:48.244Z,35.2
2018-07-01T08:12:49.695Z,35.3
2018-07-01T08:13:51.049Z,34.6
2018-07-01T08:14:52.454Z,34.9
2018-07-01T08:15:53.863Z,35.0
2018-07-01T08:16:55.262Z,34.6
2018-07-01T08:17:56.693Z,34.8
2018-07-01T08:18:58.095Z,34.9
2018-07-01T08:19:59.498Z,35.3
2018-07-01T08:21:00.901Z,34.8
2018-07-01T08:22:02.353Z,35.2
2018-07-01T08:23:03.701Z,34.9
2018-07-01T08:24:05.101Z,34.0
2018-07-01T08:25:06.505Z,34.4
2018-07-01T08:26:07.902Z,34.5
2018-07-01T08:27:09.470Z,34.4
2018-07-01T08:28:10.870Z,34.5
2018-07-01T08:29:12.277Z,34.2
2018-07-01T08:30:13.673Z,33.5
2018-07-01T08:31:15.073Z,33.6
2018-07-01T08:32:16.474Z,34.0
2018-07-01T08:33:17.874Z,33.7
2018-07-01T08:34:19.280Z,33.9
2018-07-01T08:35:20.681Z,33.6
2018-07-01T08:36:22.089Z,33.7
2018-07-01T08:37:23.491Z,33.6
2018-07-01T08:38:24.894Z,33.2
2018-07-01T08:39:26.298Z,32.9
2018-07-01T08:40:27.709Z,33.9
2018-07-01T08:41:29.761Z,33.7
2018-07-01T08:42:31.167Z,33.8
2018-07-01T08:43:32.705Z,33.7
2018-07-01T08:44:34.107Z,33.3
2018-07-01T08:45:35.526Z,33.0
2018-07-01T08:46:36.932Z,33.1
2018-07-01T08:47:38.332Z,33.1
2018-07-01T08:48:39.742Z,32.9
2018-07-01T08:49:41.148Z,32.6
2018-07-01T08:50:42.554Z,32.6
2018-07-01T08:51:43.964Z,32.1
2018-07-01T08:52:45.456Z,32.4
2018-07-01T08:53:46.771Z,31.6
2018-07-01T08:54:48.197Z,32.2
2018-07-01T08:55:49.889Z,31.9
2018-07-01T08:56:51.291Z,31.7
2018-07-01T08:57:52.730Z,32.4
2018-07-01T08:58:54.128Z,31.8
2018-07-01T08:59:55.530Z,31.9
2018-07-01T09:00:56.934Z,32.4
2018-07-01T09:01:58.338Z,32.5
2018-07-01T09:02:59.742Z,31.8
2018-07-01T09:04:01.151Z,30.6
2018-07-01T09:05:02.584Z,31.6
2018-07-01T09:06:03.972Z,31.4
2018-07-01T09:07:05.375Z,31.8
2018-07-01T09:08:06.778Z,31.3
2018-07-01T09:09:08.177Z,31.7
2018-07-01T09:10:09.598Z,31.8
2018-07-01T09:11:11.002Z,30.9
2018-07-01T09:12:12.418Z,30.7
2018-07-01T09:13:13.826Z,30.5
2018-07-01T09:14:15.226Z,30.6
2018-07-01T09:15:16.626Z,30.6
2018-07-01T09:16:18.118Z,30.2
2018-07-01T09:17:19.540Z,30.9
2018-07-01T09:18:20.925Z,30.4
2018-07-01T09:19:22.320Z,30.4
2018-07-01T09:20:23.721Z,30.6
2018-07-01T09:21:25.129Z,30.9
2018-07-01T09:22:26.531Z,30.5
2018-07-01T09:23:27.990Z,30.9
2018-07-01T09:24:29.344Z,30.3
2018-07-01T09:25:30.752Z,30.6
2018-07-01T09:26:32.159Z,30.4
2018-07-01T09:27:33.584Z,30.1
2018-07-01T09:28:35.068Z,30.6
2018-07-01T09:29:36.470Z,30.2
2018-07-01T09:30:37.873Z,30.5
2018-07-01T09:31:39.278Z,29.8
2018-07-01T09:32:40.691Z,30.1
2018-07-01T09:33:42.182Z,30.5
2018-07-01T09:34:43.650Z,30.6
2018-07-01T09:35:44.984Z,30.3
2018-07-01T09:36:46.397Z,29.6
2018-07-01T09:37:47.806Z,28.7
2018-07-01T09:38:49.212Z,28.6
2018-07-01T09:39:50.698Z,29.0
2018-07-01T09:40:52.112Z,28.7
2018-07-01T09:41:53.514Z,28.8
2018-07-01T09:42:55.008Z,28.6
2018-07-01T09:43:56.417Z,28.0
2018-07-01T09:44:57.822Z,28.6
2018-07-01T09:45:59.229Z,28.7
2018-07-01T09:47:00.803Z,29.0
2018-07-01T09:48:02.207Z,28.9
2018-07-01T09:49:03.638Z,28.0
2018-07-01T09:50:05.095Z,28.4
2018-07-01T09:51:06.501Z,27.5
2018-07-01T09:52:07.903Z,28.0
2018-07-01T09:53:09.319Z,27.0
2018-07-01T09:54:10.742Z,27.5
2018-07-01T09:55:12.154Z,28.1
2018-07-01T09:56:13.589Z,28.5
2018-07-01T09:57:14.994Z,27.8
2018-07-01T09:58:16.395Z,28.5
2018-07-01T09:59:17.806Z,28.1
2018-07-01T10:00:19.219Z,27.2
2018-07-01T10:01:20.625Z,27.2
2018-07-01T10:02:22.036Z,27.2
2018-07-01T10:03:23.449Z,26.8
2018-07-01T10:04:24.849Z,27.1
2018-07-01T10:05:26.258Z,27.0
2018-07-01T10:06:27.717Z,26.9
2018-07-01T10:07:29.128Z,26.9
2018-07-01T10:08:30.528Z,27.4
2018-07-01T10:09:31.942Z,27.5
2018-07-01T10:10:33.409Z,26.7
2018-07-01T10:11:34.826Z,27.3
2018-07-01T10:12:36.236Z,27.3
2018-07-01T10:13:37.642Z,27.5
2018-07-01T10:14:39.047Z,26.7
2018-07-01T10:15:40.450Z,26.7
2018-07-01T10:16:41.856Z,26.9
2018-07-01T10:17:43.261Z,26.6
2018-07-01T10:18:44.666Z,26.0
2018-07-01T10:19:46.070Z,26.4
2018-07-01T10:20:47.475Z,26.7
2018-07-01T10:21:48.882Z,25.9
2018-07-01T10:22:50.287Z,25.7
2018-07-01T10:23:51.736Z,25.4
2018-07-01T10:24:53.238Z,25.9
2018-07-01T10:25:54.644Z,25.5
2018-07-01T10:26:56.047Z,25.7
2018-07-01T10:27:57.472Z,25.4
2018-07-01T10:28:58.874Z,25.2
2018-07-01T10:30:00.286Z,24.9
2018-07-01T10:31:01.691Z,25.2
2018-07-01T10:32:03.130Z,25.2
2018-07-01T10:33:04.787Z,24.9
2018-07-01T10:34:06.186Z,24.8
2018-07-01T10:35:07.587Z,24.9
2018-07-01T10:36:08.995Z,24.9
2018-07-01T10:37:10.410Z,24.5
2018-07-01T10:38:11.820Z,24.4
2018-07-01T10:39:13.223Z,24.3
2018-07-01T10:40:14.655Z,24.9
2018-07-01T10:41:16.033Z,24.1
2018-07-01T10:42:17.441Z,24.5
2018-07-01T10:43:18.848Z,24.2
2018-07-01T10:44:20.252Z,24.3
2018-07-01T10:45:21.688Z,24.2
2018-07-01T10:46:23.089Z,23.9
2018-07-01T10:47:24.495Z,23.3
2018-07-01T10:48:25.898Z,23.5
2018-07-01T10:49:27.305Z,23.1
2018-07-01T10:50:28.709Z,24.0
2018-07-01T10:51:31.059Z,23.4
2018-07-01T10:52:32.427Z,24.0
2018-07-01T10:53:33.813Z,24.9
2018-07-01T10:54:35.218Z,23.9
2018-07-01T10:55:36.624Z,24.1
2018-07-01T10:56:38.031Z,24.1
2018-07-01T10:57:39.452Z,23.2
2018-07-01T10:58:40.848Z,24.1
2018-07-01T10:59:42.258Z,24.1
2018-07-01T11:00:43.872Z,24.1
2018-07-01T11:01:45.289Z,23.9
2018-07-01T11:02:46.786Z,23.2
2018-07-01T11:03:48.190Z,24.1
2018-07-01T11:04:49.600Z,23.4
2018-07-01T11:05:51.080Z,23.3
2018-07-01T11:06:52.470Z,23.0
2018-07-01T11:07:53.875Z,23.1
2018-07-01T11:08:55.276Z,22.4
2018-07-01T11:09:56.684Z,21.9
2018-07-01T11:10:58.090Z,21.3
2018-07-01T11:11:59.498Z,21.5
2018-07-01T11:13:00.904Z,21.4
2018-07-01T11:14:02.473Z,21.5
2018-07-01T11:15:03.882Z,20.5
2018-07-01T11:16:05.360Z,21.4
2018-07-01T11:17:06.765Z,20.7
2018-07-01T11:18:08.178Z,20.8
2018-07-01T11:19:09.580Z,20.8
2018-07-01T11:20:11.046Z,22.8
2018-07-01T11:21:12.398Z,21.4
2018-07-01T11:22:13.803Z,20.8
2018-07-01T11:23:15.208Z,20.5
2018-07-01T11:24:17.063Z,20.5
2018-07-01T11:25:18.459Z,19.9
2018-07-01T11:26:19.940Z,20.5
2018-07-01T11:27:21.403Z,20.5
2018-07-01T11:28:22.760Z,20.5
2018-07-01T11:29:24.165Z,19.8
2018-07-01T11:30:25.567Z,19.6
2018-07-01T11:31:27.062Z,19.3
2018-07-01T11:32:28.468Z,18.5
2018-07-01T11:33:29.885Z,19.0
2018-07-01T11:34:31.370Z,19.5
2018-07-01T11:35:32.775Z,18.8
2018-07-01T11:36:34.185Z,18.7
2018-07-01T11:37:35.591Z,18.7
2018-07-01T11:38:37.245Z,18.2
2018-07-01T11:39:38.673Z,17.6
2018-07-01T11:40:40.079Z,17.8
2018-07-01T11:41:41.485Z,18.1
2018-07-01T11:42:42.948Z,17.9
2018-07-01T11:43:44.310Z,17.9
2018-07-01T11:44:45.719Z,17.2
2018-07-01T11:45:47.130Z,17.3
2018-07-01T11:46:48.537Z,16.9
2018-07-01T11:47:49.967Z,17.5
2018-07-01T11:48:51.389Z,17.3
2018-07-01T11:49:52.809Z,17.2
2018-07-01T11:50:54.216Z,17.4
2018-07-01T11:51:55.624Z,17.0
2018-07-01T11:52:57.032Z,17.7
2018-07-01T11:53:58.446Z,16.9
2018-07-01T11:54:59.852Z,16.6
2018-07-01T11:56:01.282Z,16.8
2018-07-01T11:57:02.706Z,16.2
2018-07-01T11:58:04.121Z,16.3
2018-07-01T11:59:05.525Z,16.1
2018-07-01T12:00:06.937Z,17.0
2018-07-01T12:01:08.357Z,16.8
2018-07-01T12:02:09.764Z,16.8
2018-07-01T12:03:11.242Z,16.8
2018-07-01T12:04:12.655Z,17.1
2018-07-01T12:05:16.653Z,17.0
2018-07-01T12:06:15.470Z,16.4
2018-07-01T12:07:16.877Z,16.8
2018-07-01T12:08:18.289Z,16.1
2018-07-01T12:09:19.701Z,16.1
2018-07-01T12:10:21.121Z,16.7
2018-07-01T12:11:22.529Z,16.8
2018-07-01T12:12:23.937Z,18.0
2018-07-01T12:13:25.346Z,17.5
2018-07-01T12:14:26.787Z,16.5
2018-07-01T12:15:28.202Z,15.8
2018-07-01T12:16:29.623Z,16.3
2018-07-01T12:17:31.030Z,16.6
2018-07-01T12:18:32.444Z,17.4
2018-07-01T12:19:33.852Z,16.8
2018-07-01T12:20:35.271Z,16.1
2018-07-01T12:21:36.672Z,16.0
2018-07-01T12:22:38.140Z,16.4
2018-07-01T12:23:39.777Z,16.2
2018-07-01T12:24:41.162Z,16.3
2018-07-01T12:25:42.575Z,15.8
2018-07-01T12:26:43.984Z,15.8
2018-07-01T12:27:45.391Z,14.9
2018-07-01T12:28:46.824Z,15.5
2018-07-01T12:29:48.224Z,16.1
2018-07-01T12:30:49.625Z,16.7
2018-07-01T12:31:51.040Z,17.0
2018-07-01T12:32:52.511Z,16.0
2018-07-01T12:33:54.001Z,15.9
2018-07-01T12:34:55.409Z,16.4
2018-07-01T12:35:56.820Z,16.7
2018-07-01T12:36:58.229Z,16.0
2018-07-01T12:37:59.634Z,15.4
2018-07-01T12:39:01.050Z,15.8
2018-07-01T12:40:02.458Z,17.0
2018-07-01T12:41:03.866Z,17.3
2018-07-01T12:42:05.371Z,16.7
2018-07-01T12:43:06.688Z,15.4
2018-07-01T12:44:08.100Z,16.4
2018-07-01T12:45:09.508Z,16.0
2018-07-01T12:46:10.919Z,16.1
2018-07-01T12:47:12.330Z,15.6
2018-07-01T12:48:13.879Z,15.6
2018-07-01T12:49:15.278Z,15.6
2018-07-01T12:50:16.685Z,15.3
2018-07-01T12:51:18.094Z,14.8
2018-07-01T12:52:19.504Z,15.4
2018-07-01T12:53:20.915Z,15.3
2018-07-01T12:54:22.324Z,14.8
2018-07-01T12:55:23.735Z,15.7
2018-07-01T12:56:25.502Z,15.6
2018-07-01T12:57:26.872Z,15.3
2018-07-01T12:58:28.280Z,15.0
2018-07-01T12:59:29.692Z,15.7
2018-07-01T13:00:31.103Z,15.8
2018-07-01T13:01:32.518Z,14.8
2018-07-01T13:02:33.978Z,15.2
2018-07-01T13:03:35.338Z,15.6
2018-07-01T13:04:36.744Z,15.5
2018-07-01T13:05:38.164Z,14.8
2018-07-01T13:06:39.574Z,15.6
2018-07-01T13:07:40.983Z,15.4
2018-07-01T13:08:42.444Z,15.5
2018-07-01T13:09:43.799Z,15.2
2018-07-01T13:10:45.219Z,14.6
2018-07-01T13:11:46.628Z,14.9
2018-07-01T13:12:48.034Z,14.9
2018-07-01T13:13:49.443Z,15.3
2018-07-01T13:14:50.853Z,15.0
2018-07-01T13:15:52.265Z,15.2
2018-07-01T13:16:53.679Z,14.9
2018-07-01T13:17:55.098Z,14.9
2018-07-01T13:18:56.521Z,14.7
2018-07-01T13:19:57.927Z,15.4
2018-07-01T13:20:59.335Z,15.4
2018-07-01T13:22:00.747Z,14.9
2018-07-01T13:23:02.157Z,14.9
2018-07-01T13:24:03.564Z,14.8
2018-07-01T13:25:05.025Z,14.5
2018-07-01T13:26:06.414Z,14.5
2018-07-01T13:27:07.826Z,15.0
2018-07-01T13:28:09.234Z,15.7
2018-07-01T13:29:10.645Z,15.4
2018-07-01T13:30:12.089Z,14.9
2018-07-01T13:31:13.500Z,14.8
2018-07-01T13:32:14.946Z,14.9
2018-07-01T13:33:16.349Z,14.6
2018-07-01T13:34:17.748Z,14.5
2018-07-01T13:35:19.160Z,14.9
2018-07-01T13:36:20.574Z,15.0
2018-07-01T13:37:21.985Z,14.6